sensor_id;sensor_type;location;lat;lon;timestamp;pressure;altitude;pressure_sealevel;temperature;humidity
51195;BME280;37259;49.972;19.850;2024-03-08T00:00:22;99311.6666666667;;;1.57;81
51195;BME280;37259;49.972;19.850;2024-03-08T00:01:22;99310;;;1.58;80.99
51195;BME280;37259;49.972;19.850;2024-03-08T00:02:22;99310;;;1.61;81
51195;BME280;37259;49.972;19.850;2024-03-08T00:03:22;99310;;;1.61;80.93
51195;BME280;37259;49.972;19.850;2024-03-08T00:04:22;99310;;;1.62;80.87
51195;BME280;37259;49.972;19.850;2024-03-08T00:05:22;99310;;;1.61;80.82
51195;BME280;37259;49.972;19.850;2024-03-08T00:06:22;99305;;;1.59;80.92
51195;BME280;37259;49.972;19.850;2024-03-08T00:07:22;99306.6666666667;;;1.62;80.9
51195;BME280;37259;49.972;19.850;2024-03-08T00:08:22;99305;;;1.62;80.93
51195;BME280;37259;49.972;19.850;2024-03-08T00:09:22;99303.3333333333;;;1.5;81.02
51195;BME280;37259;49.972;19.850;2024-03-08T00:10:22;99303.3333333333;;;1.5;81.07
51195;BME280;37259;49.972;19.850;2024-03-08T00:11:22;99303.3333333333;;;1.53;81.15
51195;BME280;37259;49.972;19.850;2024-03-08T00:12:22;99303.3333333333;;;1.57;81.13
51195;BME280;37259;49.972;19.850;2024-03-08T00:13:22;99303.3333333333;;;1.61;81.07
51195;BME280;37259;49.972;19.850;2024-03-08T00:14:22;99303.3333333333;;;1.59;81.02
51195;BME280;37259;49.972;19.850;2024-03-08T00:15:22;99305;;;1.55;80.95
51195;BME280;37259;49.972;19.850;2024-03-08T00:16:22;99306.6666666667;;;1.57;80.97
51195;BME280;37259;49.972;19.850;2024-03-08T00:17:22;99305;;;1.53;81.02
51195;BME280;37259;49.972;19.850;2024-03-08T00:18:22;99305;;;1.55;81.07
51195;BME280;37259;49.972;19.850;2024-03-08T00:19:22;99305;;;1.55;81.17
51195;BME280;37259;49.972;19.850;2024-03-08T00:20:22;99303.3333333333;;;1.52;81.17
51195;BME280;37259;49.972;19.850;2024-03-08T00:21:22;99303.3333333333;;;1.5;80.93
51195;BME280;37259;49.972;19.850;2024-03-08T00:22:22;99305;;;1.5;81.09
51195;BME280;37259;49.972;19.850;2024-03-08T00:23:22;99303.3333333333;;;1.44;81.31
51195;BME280;37259;49.972;19.850;2024-03-08T00:24:22;99303.3333333333;;;1.44;81.5
51195;BME280;37259;49.972;19.850;2024-03-08T00:25:22;99301.6666666667;;;1.49;81.41
51195;BME280;37259;49.972;19.850;2024-03-08T00:26:22;99300;;;1.53;81.29
51195;BME280;37259;49.972;19.850;2024-03-08T00:27:22;99300;;;1.51;81.04
51195;BME280;37259;49.972;19.850;2024-03-08T00:28:22;99300;;;1.47;80.82
51195;BME280;37259;49.972;19.850;2024-03-08T00:29:22;99301.6666666667;;;1.55;80.9
51195;BME280;37259;49.972;19.850;2024-03-08T00:30:22;99300;;;1.58;80.85
51195;BME280;37259;49.972;19.850;2024-03-08T00:31:22;99298.3333333333;;;1.61;80.85
51195;BME280;37259;49.972;19.850;2024-03-08T00:32:22;99296.6666666667;;;1.63;80.74
51195;BME280;37259;49.972;19.850;2024-03-08T00:33:22;99298.3333333333;;;1.66;80.54
51195;BME280;37259;49.972;19.850;2024-03-08T00:34:22;99298.3333333333;;;1.69;80.57
51195;BME280;37259;49.972;19.850;2024-03-08T00:35:22;99300;;;1.66;80.16
51195;BME280;37259;49.972;19.850;2024-03-08T00:36:22;99296.6666666667;;;1.69;80.24
51195;BME280;37259;49.972;19.850;2024-03-08T00:37:22;99293.3333333333;;;1.67;80.19
51195;BME280;37259;49.972;19.850;2024-03-08T00:38:22;99293.3333333333;;;1.65;79.95
51195;BME280;37259;49.972;19.850;2024-03-08T00:39:22;99293.3333333333;;;1.69;80.1
51195;BME280;37259;49.972;19.850;2024-03-08T00:40:22;99293.3333333333;;;1.69;80.13
51195;BME280;37259;49.972;19.850;2024-03-08T00:41:22;99291.6666666667;;;1.71;80.1
51195;BME280;37259;49.972;19.850;2024-03-08T00:42:22;99291.6666666667;;;1.65;79.92
51195;BME280;37259;49.972;19.850;2024-03-08T00:43:22;99290;;;1.69;80.03
51195;BME280;37259;49.972;19.850;2024-03-08T00:44:22;99288.3333333333;;;1.7;79.92
51195;BME280;37259;49.972;19.850;2024-03-08T00:45:22;99286.6666666667;;;1.67;79.83
51195;BME280;37259;49.972;19.850;2024-03-08T00:46:22;99288.3333333333;;;1.68;79.79
51195;BME280;37259;49.972;19.850;2024-03-08T00:47:22;99290;;;1.66;79.74
51195;BME280;37259;49.972;19.850;2024-03-08T00:48:22;99286.6666666667;;;1.66;79.81
51195;BME280;37259;49.972;19.850;2024-03-08T00:49:22;99290;;;1.62;79.97
51195;BME280;37259;49.972;19.850;2024-03-08T00:50:22;99286.6666666667;;;1.58;79.93
51195;BME280;37259;49.972;19.850;2024-03-08T00:51:22;99283.3333333333;;;1.58;80.02
51195;BME280;37259;49.972;19.850;2024-03-08T00:52:22;99283.3333333333;;;1.63;80.09
51195;BME280;37259;49.972;19.850;2024-03-08T00:53:22;99281.6666666667;;;1.59;79.77
51195;BME280;37259;49.972;19.850;2024-03-08T00:54:22;99281.6666666667;;;1.65;79.9
51195;BME280;37259;49.972;19.850;2024-03-08T00:55:22;99280;;;1.57;79.54
51195;BME280;37259;49.972;19.850;2024-03-08T00:56:22;99281.6666666667;;;1.59;79.75
51195;BME280;37259;49.972;19.850;2024-03-08T00:57:22;99280;;;1.59;79.79
51195;BME280;37259;49.972;19.850;2024-03-08T00:58:22;99280;;;1.62;79.89
51195;BME280;37259;49.972;19.850;2024-03-08T00:59:22;99281.6666666667;;;1.63;79.91
51195;BME280;37259;49.972;19.850;2024-03-08T01:00:22;99281.6666666667;;;1.65;79.88
51195;BME280;37259;49.972;19.850;2024-03-08T01:01:22;99283.3333333333;;;1.66;79.77
51195;BME280;37259;49.972;19.850;2024-03-08T01:02:22;99285;;;1.7;79.52
51195;BME280;37259;49.972;19.850;2024-03-08T01:03:22;99283.3333333333;;;1.66;79.32
51195;BME280;37259;49.972;19.850;2024-03-08T01:04:22;99285;;;1.65;79.41
51195;BME280;37259;49.972;19.850;2024-03-08T01:05:22;99283.3333333333;;;1.66;79.42
51195;BME280;37259;49.972;19.850;2024-03-08T01:06:22;99283.3333333333;;;1.62;79.52
51195;BME280;37259;49.972;19.850;2024-03-08T01:07:22;99281.6666666667;;;1.62;79.5
51195;BME280;37259;49.972;19.850;2024-03-08T01:08:22;99280;;;1.61;79.58
51195;BME280;37259;49.972;19.850;2024-03-08T01:09:22;99281.6666666667;;;1.59;79.28
51195;BME280;37259;49.972;19.850;2024-03-08T01:10:22;99281.6666666667;;;1.57;79.6
51195;BME280;37259;49.972;19.850;2024-03-08T01:11:22;99280;;;1.61;79.64
51195;BME280;37259;49.972;19.850;2024-03-08T01:12:22;99276.6666666667;;;1.66;79.56
51195;BME280;37259;49.972;19.850;2024-03-08T01:13:22;99278.3333333333;;;1.61;79.41
51195;BME280;37259;49.972;19.850;2024-03-08T01:14:22;99278.3333333333;;;1.63;79.4
51195;BME280;37259;49.972;19.850;2024-03-08T01:15:22;99275;;;1.6;79.54
51195;BME280;37259;49.972;19.850;2024-03-08T01:16:22;99271.6666666667;;;1.61;79.19
51195;BME280;37259;49.972;19.850;2024-03-08T01:17:22;99273.3333333333;;;1.64;78.96
51195;BME280;37259;49.972;19.850;2024-03-08T01:18:22;99273.3333333333;;;1.65;79.1
51195;BME280;37259;49.972;19.850;2024-03-08T01:19:22;99270;;;1.6;78.96
51195;BME280;37259;49.972;19.850;2024-03-08T01:20:22;99270;;;1.59;79.19
51195;BME280;37259;49.972;19.850;2024-03-08T01:21:22;99268.3333333333;;;1.55;79.2
51195;BME280;37259;49.972;19.850;2024-03-08T01:22:22;99265;;;1.62;79.11
51195;BME280;37259;49.972;19.850;2024-03-08T01:23:22;99265;;;1.62;79.12
51195;BME280;37259;49.972;19.850;2024-03-08T01:24:22;99263.3333333333;;;1.54;79.15
51195;BME280;37259;49.972;19.850;2024-03-08T01:25:22;99258.3333333333;;;1.55;78.81
51195;BME280;37259;49.972;19.850;2024-03-08T01:26:22;99258.3333333333;;;1.55;78.8
51195;BME280;37259;49.972;19.850;2024-03-08T01:27:22;99258.3333333333;;;1.54;78.88
51195;BME280;37259;49.972;19.850;2024-03-08T01:28:22;99258.3333333333;;;1.52;78.9
51195;BME280;37259;49.972;19.850;2024-03-08T01:29:22;99255;;;1.54;78.91
51195;BME280;37259;49.972;19.850;2024-03-08T01:30:22;99256.6666666667;;;1.5;78.86
51195;BME280;37259;49.972;19.850;2024-03-08T01:31:22;99256.6666666667;;;1.45;78.56
51195;BME280;37259;49.972;19.850;2024-03-08T01:32:22;99256.6666666667;;;1.47;78.8
51195;BME280;37259;49.972;19.850;2024-03-08T01:33:22;99255;;;1.51;78.86
51195;BME280;37259;49.972;19.850;2024-03-08T01:34:22;99258.3333333333;;;1.53;78.9
51195;BME280;37259;49.972;19.850;2024-03-08T01:35:22;99255;;;1.54;78.91
51195;BME280;37259;49.972;19.850;2024-03-08T01:36:22;99255;;;1.45;79.2
51195;BME280;37259;49.972;19.850;2024-03-08T01:37:22;99255;;;1.52;79.04
51195;BME280;37259;49.972;19.850;2024-03-08T01:38:22;99255;;;1.55;78.97
51195;BME280;37259;49.972;19.850;2024-03-08T01:39:22;99255;;;1.54;78.81
51195;BME280;37259;49.972;19.850;2024-03-08T01:40:22;99253.3333333333;;;1.57;78.9
51195;BME280;37259;49.972;19.850;2024-03-08T01:41:22;99255;;;1.59;78.82
51195;BME280;37259;49.972;19.850;2024-03-08T01:42:22;99253.3333333333;;;1.56;78.87
51195;BME280;37259;49.972;19.850;2024-03-08T01:43:25;99253.3333333333;;;1.55;78.63
51195;BME280;37259;49.972;19.850;2024-03-08T01:44:22;99253.3333333333;;;1.61;78.88
51195;BME280;37259;49.972;19.850;2024-03-08T01:45:22;99253.3333333333;;;1.57;78.85
51195;BME280;37259;49.972;19.850;2024-03-08T01:46:22;99255;;;1.59;78.44
51195;BME280;37259;49.972;19.850;2024-03-08T01:47:22;99251.6666666667;;;1.57;78.55
51195;BME280;37259;49.972;19.850;2024-03-08T01:48:22;99253.3333333333;;;1.61;78.51
51195;BME280;37259;49.972;19.850;2024-03-08T01:49:22;99251.6666666667;;;1.63;78.45
51195;BME280;37259;49.972;19.850;2024-03-08T01:50:22;99251.6666666667;;;1.64;78.55
51195;BME280;37259;49.972;19.850;2024-03-08T01:51:22;99251.6666666667;;;1.66;78.55
51195;BME280;37259;49.972;19.850;2024-03-08T01:52:22;99250;;;1.65;78.6
51195;BME280;37259;49.972;19.850;2024-03-08T01:53:22;99251.6666666667;;;1.68;78.61
51195;BME280;37259;49.972;19.850;2024-03-08T01:54:22;99250;;;1.68;78.48
51195;BME280;37259;49.972;19.850;2024-03-08T01:55:22;99248.3333333333;;;1.54;78.3
51195;BME280;37259;49.972;19.850;2024-03-08T01:56:22;99245;;;1.56;78.49
51195;BME280;37259;49.972;19.850;2024-03-08T01:57:22;99243.3333333333;;;1.51;78.71
51195;BME280;37259;49.972;19.850;2024-03-08T01:58:22;99245;;;1.55;78.54
51195;BME280;37259;49.972;19.850;2024-03-08T01:59:22;99241.6666666667;;;1.47;78.81
51195;BME280;37259;49.972;19.850;2024-03-08T02:00:22;99238.3333333333;;;1.4;78.7
51195;BME280;37259;49.972;19.850;2024-03-08T02:01:22;99240;;;1.44;78.8
51195;BME280;37259;49.972;19.850;2024-03-08T02:02:22;99240;;;1.46;78.76
51195;BME280;37259;49.972;19.850;2024-03-08T02:03:22;99238.3333333333;;;1.42;78.83
51195;BME280;37259;49.972;19.850;2024-03-08T02:04:22;99238.3333333333;;;1.4;78.91
51195;BME280;37259;49.972;19.850;2024-03-08T02:05:22;99238.3333333333;;;1.44;78.9
51195;BME280;37259;49.972;19.850;2024-03-08T02:06:22;99238.3333333333;;;1.42;78.62
51195;BME280;37259;49.972;19.850;2024-03-08T02:07:22;99238.3333333333;;;1.45;78.53
51195;BME280;37259;49.972;19.850;2024-03-08T02:08:22;99240;;;1.39;78.75
51195;BME280;37259;49.972;19.850;2024-03-08T02:09:22;99236.6666666667;;;1.42;78.94
51195;BME280;37259;49.972;19.850;2024-03-08T02:10:22;99236.6666666667;;;1.44;78.8
51195;BME280;37259;49.972;19.850;2024-03-08T02:11:22;99233.3333333333;;;1.4;78.67
51195;BME280;37259;49.972;19.850;2024-03-08T02:12:22;99233.3333333333;;;1.47;78.64
51195;BME280;37259;49.972;19.850;2024-03-08T02:13:22;99231.6666666667;;;1.49;78.39
51195;BME280;37259;49.972;19.850;2024-03-08T02:14:22;99231.6666666667;;;1.43;78.4
51195;BME280;37259;49.972;19.850;2024-03-08T02:15:22;99228.3333333333;;;1.44;78.35
51195;BME280;37259;49.972;19.850;2024-03-08T02:16:22;99230;;;1.44;78.37
51195;BME280;37259;49.972;19.850;2024-03-08T02:17:22;99230;;;1.47;78.51
51195;BME280;37259;49.972;19.850;2024-03-08T02:18:22;99231.6666666667;;;1.51;78.38
51195;BME280;37259;49.972;19.850;2024-03-08T02:19:22;99230;;;1.46;78.28
51195;BME280;37259;49.972;19.850;2024-03-08T02:20:22;99228.3333333333;;;1.43;78.56
51195;BME280;37259;49.972;19.850;2024-03-08T02:21:22;99225;;;1.43;78.61
51195;BME280;37259;49.972;19.850;2024-03-08T02:22:22;99226.6666666667;;;1.45;78.65
51195;BME280;37259;49.972;19.850;2024-03-08T02:23:22;99226.6666666667;;;1.51;78.68
51195;BME280;37259;49.972;19.850;2024-03-08T02:24:22;99226.6666666667;;;1.54;78.73
51195;BME280;37259;49.972;19.850;2024-03-08T02:25:22;99226.6666666667;;;1.39;78.81
51195;BME280;37259;49.972;19.850;2024-03-08T02:26:22;99225;;;1.43;79.04
51195;BME280;37259;49.972;19.850;2024-03-08T02:27:23;99225;;;1.43;79.01
51195;BME280;37259;49.972;19.850;2024-03-08T02:28:23;99226.6666666667;;;1.43;78.98
51195;BME280;37259;49.972;19.850;2024-03-08T02:29:22;99225;;;1.48;78.86
51195;BME280;37259;49.972;19.850;2024-03-08T02:30:22;99225;;;1.51;78.71
51195;BME280;37259;49.972;19.850;2024-03-08T02:31:22;99223.3333333333;;;1.53;78.66
51195;BME280;37259;49.972;19.850;2024-03-08T02:32:22;99223.3333333333;;;1.48;78.62
51195;BME280;37259;49.972;19.850;2024-03-08T02:33:22;99225;;;1.53;78.67
51195;BME280;37259;49.972;19.850;2024-03-08T02:34:22;99226.6666666667;;;1.54;78.64
51195;BME280;37259;49.972;19.850;2024-03-08T02:35:22;99226.6666666667;;;1.56;78.54
51195;BME280;37259;49.972;19.850;2024-03-08T02:36:22;99228.3333333333;;;1.57;78.31
51195;BME280;37259;49.972;19.850;2024-03-08T02:37:22;99228.3333333333;;;1.57;78.35
51195;BME280;37259;49.972;19.850;2024-03-08T02:38:22;99225;;;1.54;78.39
51195;BME280;37259;49.972;19.850;2024-03-08T02:39:22;99226.6666666667;;;1.54;78.46
51195;BME280;37259;49.972;19.850;2024-03-08T02:40:22;99225;;;1.53;78.55
51195;BME280;37259;49.972;19.850;2024-03-08T02:41:22;99225;;;1.44;78.68
51195;BME280;37259;49.972;19.850;2024-03-08T02:42:23;99225;;;1.45;78.33
51195;BME280;37259;49.972;19.850;2024-03-08T02:43:22;99226.6666666667;;;1.45;78.64
51195;BME280;37259;49.972;19.850;2024-03-08T02:44:22;99228.3333333333;;;1.5;78.46
51195;BME280;37259;49.972;19.850;2024-03-08T02:45:22;99225;;;1.51;78.4
51195;BME280;37259;49.972;19.850;2024-03-08T02:46:22;99226.6666666667;;;1.49;78.45
51195;BME280;37259;49.972;19.850;2024-03-08T02:47:22;99228.3333333333;;;1.52;78.45
51195;BME280;37259;49.972;19.850;2024-03-08T02:48:22;99230;;;1.53;78.31
51195;BME280;37259;49.972;19.850;2024-03-08T02:49:22;99230;;;1.49;78.29
51195;BME280;37259;49.972;19.850;2024-03-08T02:50:22;99230;;;1.53;78.21
51195;BME280;37259;49.972;19.850;2024-03-08T02:51:22;99230;;;1.5;77.97
51195;BME280;37259;49.972;19.850;2024-03-08T02:52:22;99231.6666666667;;;1.51;78.21
51195;BME280;37259;49.972;19.850;2024-03-08T02:53:22;99230;;;1.55;78.34
51195;BME280;37259;49.972;19.850;2024-03-08T02:54:22;99231.6666666667;;;1.5;78.64
51195;BME280;37259;49.972;19.850;2024-03-08T02:55:22;99235;;;1.54;78.5
51195;BME280;37259;49.972;19.850;2024-03-08T02:56:22;99235;;;1.57;78.23
51195;BME280;37259;49.972;19.850;2024-03-08T02:57:22;99233.3333333333;;;1.63;78.26
51195;BME280;37259;49.972;19.850;2024-03-08T02:58:22;99231.6666666667;;;1.59;78.04
51195;BME280;37259;49.972;19.850;2024-03-08T02:59:22;99230;;;1.58;78.01
51195;BME280;37259;49.972;19.850;2024-03-08T03:00:23;99231.6666666667;;;1.54;78.11
51195;BME280;37259;49.972;19.850;2024-03-08T03:01:22;99235;;;1.52;78.37
51195;BME280;37259;49.972;19.850;2024-03-08T03:02:22;99233.3333333333;;;1.52;78.51
51195;BME280;37259;49.972;19.850;2024-03-08T03:03:22;99233.3333333333;;;1.52;78.53
51195;BME280;37259;49.972;19.850;2024-03-08T03:04:22;99233.3333333333;;;1.53;78.69
51195;BME280;37259;49.972;19.850;2024-03-08T03:05:22;99233.3333333333;;;1.51;78.57
51195;BME280;37259;49.972;19.850;2024-03-08T03:06:22;99230;;;1.49;78.54
51195;BME280;37259;49.972;19.850;2024-03-08T03:07:22;99230;;;1.52;78.68
51195;BME280;37259;49.972;19.850;2024-03-08T03:08:22;99230;;;1.46;78.61
51195;BME280;37259;49.972;19.850;2024-03-08T03:09:22;99228.3333333333;;;1.53;78.52
51195;BME280;37259;49.972;19.850;2024-03-08T03:10:22;99230;;;1.53;78.45
51195;BME280;37259;49.972;19.850;2024-03-08T03:11:22;99230;;;1.53;78.44
51195;BME280;37259;49.972;19.850;2024-03-08T03:12:22;99226.6666666667;;;1.52;78.05
51195;BME280;37259;49.972;19.850;2024-03-08T03:13:22;99226.6666666667;;;1.54;77.98
51195;BME280;37259;49.972;19.850;2024-03-08T03:14:22;99226.6666666667;;;1.58;78.04
51195;BME280;37259;49.972;19.850;2024-03-08T03:15:22;99226.6666666667;;;1.58;78.1
51195;BME280;37259;49.972;19.850;2024-03-08T03:16:22;99230;;;1.61;78.09
51195;BME280;37259;49.972;19.850;2024-03-08T03:17:22;99230;;;1.54;78.45
51195;BME280;37259;49.972;19.850;2024-03-08T03:18:22;99223.3333333333;;;1.48;78.74
51195;BME280;37259;49.972;19.850;2024-03-08T03:19:22;99225;;;1.45;78.64
51195;BME280;37259;49.972;19.850;2024-03-08T03:20:22;99225;;;1.42;78.19
51195;BME280;37259;49.972;19.850;2024-03-08T03:21:22;99230;;;1.44;78.44
51195;BME280;37259;49.972;19.850;2024-03-08T03:22:22;99226.6666666667;;;1.5;78.44
51195;BME280;37259;49.972;19.850;2024-03-08T03:23:22;99226.6666666667;;;1.56;78.19
51195;BME280;37259;49.972;19.850;2024-03-08T03:24:22;99228.3333333333;;;1.58;78.22
51195;BME280;37259;49.972;19.850;2024-03-08T03:25:22;99230;;;1.57;78.24
51195;BME280;37259;49.972;19.850;2024-03-08T03:26:22;99228.3333333333;;;1.5;78.43
51195;BME280;37259;49.972;19.850;2024-03-08T03:27:22;99225;;;1.47;78.44
51195;BME280;37259;49.972;19.850;2024-03-08T03:28:22;99230;;;1.51;78.56
51195;BME280;37259;49.972;19.850;2024-03-08T03:29:22;99230;;;1.54;78.35
51195;BME280;37259;49.972;19.850;2024-03-08T03:30:22;99230;;;1.55;78.35
51195;BME280;37259;49.972;19.850;2024-03-08T03:31:22;99230;;;1.54;78.44
51195;BME280;37259;49.972;19.850;2024-03-08T03:32:22;99231.6666666667;;;1.51;78.57
51195;BME280;37259;49.972;19.850;2024-03-08T03:33:22;99233.3333333333;;;1.44;78.8
51195;BME280;37259;49.972;19.850;2024-03-08T03:34:22;99231.6666666667;;;1.47;78.8
51195;BME280;37259;49.972;19.850;2024-03-08T03:35:22;99230;;;1.46;78.74
51195;BME280;37259;49.972;19.850;2024-03-08T03:36:22;99230;;;1.47;78.61
51195;BME280;37259;49.972;19.850;2024-03-08T03:37:22;99230;;;1.45;78.59
51195;BME280;37259;49.972;19.850;2024-03-08T03:38:22;99231.6666666667;;;1.34;78.94
51195;BME280;37259;49.972;19.850;2024-03-08T03:39:22;99230;;;1.34;79.17
51195;BME280;37259;49.972;19.850;2024-03-08T03:40:22;99228.3333333333;;;1.35;78.87
51195;BME280;37259;49.972;19.850;2024-03-08T03:41:22;99231.6666666667;;;1.38;78.6
51195;BME280;37259;49.972;19.850;2024-03-08T03:42:22;99230;;;1.46;78.62
51195;BME280;37259;49.972;19.850;2024-03-08T03:43:22;99231.6666666667;;;1.47;78.82
51195;BME280;37259;49.972;19.850;2024-03-08T03:44:22;99230;;;1.43;78.54
51195;BME280;37259;49.972;19.850;2024-03-08T03:45:22;99230;;;1.45;78.68
51195;BME280;37259;49.972;19.850;2024-03-08T03:46:22;99230;;;1.46;78.61
51195;BME280;37259;49.972;19.850;2024-03-08T03:47:22;99230;;;1.5;78.77
51195;BME280;37259;49.972;19.850;2024-03-08T03:48:22;99230;;;1.52;78.67
51195;BME280;37259;49.972;19.850;2024-03-08T03:49:22;99228.3333333333;;;1.59;78.54
51195;BME280;37259;49.972;19.850;2024-03-08T03:50:22;99231.6666666667;;;1.51;78.54
51195;BME280;37259;49.972;19.850;2024-03-08T03:51:22;99231.6666666667;;;1.39;78.64
51195;BME280;37259;49.972;19.850;2024-03-08T03:52:22;99228.3333333333;;;1.32;78.54
51195;BME280;37259;49.972;19.850;2024-03-08T03:53:22;99230;;;1.31;78.82
51195;BME280;37259;49.972;19.850;2024-03-08T03:54:22;99228.3333333333;;;1.38;78.72
51195;BME280;37259;49.972;19.850;2024-03-08T03:55:22;99228.3333333333;;;1.37;78.73
51195;BME280;37259;49.972;19.850;2024-03-08T03:56:24;99228.3333333333;;;1.39;78.51
51195;BME280;37259;49.972;19.850;2024-03-08T03:57:22;99228.3333333333;;;1.32;78.33
51195;BME280;37259;49.972;19.850;2024-03-08T03:58:22;99225;;;1.32;78.44
51195;BME280;37259;49.972;19.850;2024-03-08T03:59:22;99223.3333333333;;;1.36;78.25
51195;BME280;37259;49.972;19.850;2024-03-08T04:00:22;99228.3333333333;;;1.34;78.02
51195;BME280;37259;49.972;19.850;2024-03-08T04:01:22;99230;;;1.27;78.29
51195;BME280;37259;49.972;19.850;2024-03-08T04:02:22;99228.3333333333;;;1.33;78.18
51195;BME280;37259;49.972;19.850;2024-03-08T04:03:22;99228.3333333333;;;1.3;78.3
51195;BME280;37259;49.972;19.850;2024-03-08T04:04:22;99230;;;1.35;78.29
51195;BME280;37259;49.972;19.850;2024-03-08T04:05:22;99228.3333333333;;;1.24;78.35
51195;BME280;37259;49.972;19.850;2024-03-08T04:06:22;99226.6666666667;;;1.27;78.69
51195;BME280;37259;49.972;19.850;2024-03-08T04:07:22;99223.3333333333;;;1.22;78.74
51195;BME280;37259;49.972;19.850;2024-03-08T04:08:22;99221.6666666667;;;1.27;78.54
51195;BME280;37259;49.972;19.850;2024-03-08T04:09:22;99220;;;1.19;78.24
51195;BME280;37259;49.972;19.850;2024-03-08T04:10:22;99221.6666666667;;;1.11;78.92
51195;BME280;37259;49.972;19.850;2024-03-08T04:11:22;99220;;;1.08;78.66
51195;BME280;37259;49.972;19.850;2024-03-08T04:12:22;99220;;;1.03;78.98
51195;BME280;37259;49.972;19.850;2024-03-08T04:13:22;99220;;;1.13;78.78
51195;BME280;37259;49.972;19.850;2024-03-08T04:14:22;99220;;;1.18;78.84
51195;BME280;37259;49.972;19.850;2024-03-08T04:15:22;99223.3333333333;;;1.14;79.01
51195;BME280;37259;49.972;19.850;2024-03-08T04:16:22;99221.6666666667;;;1.18;79.04
51195;BME280;37259;49.972;19.850;2024-03-08T04:17:22;99220;;;1.15;78.99
51195;BME280;37259;49.972;19.850;2024-03-08T04:18:22;99218.3333333333;;;1.17;78.82
51195;BME280;37259;49.972;19.850;2024-03-08T04:19:22;99220;;;1.23;78.76
51195;BME280;37259;49.972;19.850;2024-03-08T04:20:22;99220;;;1.17;78.99
51195;BME280;37259;49.972;19.850;2024-03-08T04:21:22;99221.6666666667;;;1.19;79.19
51195;BME280;37259;49.972;19.850;2024-03-08T04:22:22;99225;;;1.07;79.41
51195;BME280;37259;49.972;19.850;2024-03-08T04:23:22;99221.6666666667;;;1.05;79.52
51195;BME280;37259;49.972;19.850;2024-03-08T04:24:22;99223.3333333333;;;1.08;79.28
51195;BME280;37259;49.972;19.850;2024-03-08T04:25:22;99223.3333333333;;;0.97;79.09
51195;BME280;37259;49.972;19.850;2024-03-08T04:26:22;99221.6666666667;;;0.98;79.46
51195;BME280;37259;49.972;19.850;2024-03-08T04:27:22;99221.6666666667;;;0.97;79.68
51195;BME280;37259;49.972;19.850;2024-03-08T04:28:22;99221.6666666667;;;0.98;79.64
51195;BME280;37259;49.972;19.850;2024-03-08T04:29:22;99221.6666666667;;;1.08;79.57
51195;BME280;37259;49.972;19.850;2024-03-08T04:30:22;99221.6666666667;;;1.12;79.33
51195;BME280;37259;49.972;19.850;2024-03-08T04:31:22;99221.6666666667;;;1.1;79.48
51195;BME280;37259;49.972;19.850;2024-03-08T04:32:22;99223.3333333333;;;1.1;79.48
51195;BME280;37259;49.972;19.850;2024-03-08T04:33:22;99223.3333333333;;;1.17;79.4
51195;BME280;37259;49.972;19.850;2024-03-08T04:34:22;99223.3333333333;;;1.14;79.54
51195;BME280;37259;49.972;19.850;2024-03-08T04:35:22;99225;;;1.1;80.17
51195;BME280;37259;49.972;19.850;2024-03-08T04:36:22;99225;;;1.16;79.83
51195;BME280;37259;49.972;19.850;2024-03-08T04:37:22;99223.3333333333;;;1.15;79.35
51195;BME280;37259;49.972;19.850;2024-03-08T04:38:22;99225;;;1.19;79.38
51195;BME280;37259;49.972;19.850;2024-03-08T04:39:22;99223.3333333333;;;1.13;79.63
51195;BME280;37259;49.972;19.850;2024-03-08T04:40:22;99225;;;1.12;79.29
51195;BME280;37259;49.972;19.850;2024-03-08T04:41:22;99228.3333333333;;;1.11;79.21
51195;BME280;37259;49.972;19.850;2024-03-08T04:42:22;99225;;;1.14;79.19
51195;BME280;37259;49.972;19.850;2024-03-08T04:43:22;99226.6666666667;;;1.21;79.14
51195;BME280;37259;49.972;19.850;2024-03-08T04:44:22;99226.6666666667;;;1.14;79.26
51195;BME280;37259;49.972;19.850;2024-03-08T04:45:22;99228.3333333333;;;1.11;79.14
51195;BME280;37259;49.972;19.850;2024-03-08T04:46:22;99228.3333333333;;;1.07;78.92
51195;BME280;37259;49.972;19.850;2024-03-08T04:47:22;99230;;;1.1;78.99
51195;BME280;37259;49.972;19.850;2024-03-08T04:48:22;99230;;;1.15;79.09
51195;BME280;37259;49.972;19.850;2024-03-08T04:49:22;99230;;;1.11;79.16
51195;BME280;37259;49.972;19.850;2024-03-08T04:50:22;99231.6666666667;;;1.12;79.21
51195;BME280;37259;49.972;19.850;2024-03-08T04:51:22;99231.6666666667;;;1.08;79.53
51195;BME280;37259;49.972;19.850;2024-03-08T04:52:22;99231.6666666667;;;1.08;79.44
51195;BME280;37259;49.972;19.850;2024-03-08T04:53:22;99230;;;1.08;79.44
51195;BME280;37259;49.972;19.850;2024-03-08T04:54:22;99233.3333333333;;;1.17;79.31
51195;BME280;37259;49.972;19.850;2024-03-08T04:55:22;99235;;;1.15;79.19
51195;BME280;37259;49.972;19.850;2024-03-08T04:56:22;99233.3333333333;;;1.15;79.25
51195;BME280;37259;49.972;19.850;2024-03-08T04:57:22;99236.6666666667;;;1.18;79.02
51195;BME280;37259;49.972;19.850;2024-03-08T04:58:22;99235;;;1.12;79.34
51195;BME280;37259;49.972;19.850;2024-03-08T04:59:22;99235;;;1.14;79.38
51195;BME280;37259;49.972;19.850;2024-03-08T05:00:22;99235;;;1.16;79.27
51195;BME280;37259;49.972;19.850;2024-03-08T05:01:22;99235;;;1.19;79.07
51195;BME280;37259;49.972;19.850;2024-03-08T05:02:22;99236.6666666667;;;1.14;79
51195;BME280;37259;49.972;19.850;2024-03-08T05:03:22;99236.6666666667;;;1.06;79.33
51195;BME280;37259;49.972;19.850;2024-03-08T05:04:22;99238.3333333333;;;1.01;79.3